sensor_id;sensor_type;location;lat;lon;timestamp;P1;durP1;ratioP1;P2;durP2;ratioP2
2542;SDS011;1116;51.502;7.414;2023-05-10T00:02:13;2.37;;;2.10;;
2542;SDS011;1116;51.502;7.414;2023-05-10T00:04:44;2.03;;;1.93;;
2542;SDS011;1116;51.502;7.414;2023-05-10T00:07:14;2.33;;;2.10;;
2542;SDS011;1116;51.502;7.414;2023-05-10T00:09:46;2.70;;;2.50;;
2542;SDS011;1116;51.502;7.414;2023-05-10T00:12:17;2.70;;;2.50;;
2542;SDS011;1116;51.502;7.414;2023-05-10T00:14:51;3.53;;;3.23;;
2542;SDS011;1116;51.502;7.414;2023-05-10T00:17:22;4.23;;;3.50;;
2542;SDS011;1116;51.502;7.414;2023-05-10T00:19:53;4.07;;;3.10;;
2542;SDS011;1116;51.502;7.414;2023-05-10T00:22:24;4.03;;;3.63;;
2542;SDS011;1116;51.502;7.414;2023-05-10T00:24:55;3.70;;;3.40;;
2542;SDS011;1116;51.502;7.414;2023-05-10T00:27:26;4.00;;;3.70;;
2542;SDS011;1116;51.502;7.414;2023-05-10T00:30:00;4.17;;;3.83;;
2542;SDS011;1116;51.502;7.414;2023-05-10T00:32:31;4.37;;;3.97;;
2542;SDS011;1116;51.502;7.414;2023-05-10T00:35:02;4.87;;;4.27;;
2542;SDS011;1116;51.502;7.414;2023-05-10T00:37:33;4.23;;;3.90;;
2542;SDS011;1116;51.502;7.414;2023-05-10T00:40:05;4.97;;;4.47;;
2542;SDS011;1116;51.502;7.414;2023-05-10T00:42:37;5.67;;;5.10;;
2542;SDS011;1116;51.502;7.414;2023-05-10T00:45:11;6.47;;;5.83;;
2542;SDS011;1116;51.502;7.414;2023-05-10T00:47:42;6.13;;;5.53;;
2542;SDS011;1116;51.502;7.414;2023-05-10T00:50:13;6.60;;;5.77;;
2542;SDS011;1116;51.502;7.414;2023-05-10T00:52:45;6.63;;;5.77;;
2542;SDS011;1116;51.502;7.414;2023-05-10T00:55:16;9.27;;;6.33;;
2542;SDS011;1116;51.502;7.414;2023-05-10T00:57:48;6.90;;;5.80;;
2542;SDS011;1116;51.502;7.414;2023-05-10T01:00:22;6.83;;;5.73;;
2542;SDS011;1116;51.502;7.414;2023-05-10T01:02:53;7.37;;;6.20;;
2542;SDS011;1116;51.502;7.414;2023-05-10T01:05:24;6.60;;;5.87;;
2542;SDS011;1116;51.502;7.414;2023-05-10T01:07:55;8.53;;;7.20;;
2542;SDS011;1116;51.502;7.414;2023-05-10T01:10:27;6.80;;;6.10;;
2542;SDS011;1116;51.502;7.414;2023-05-10T01:12:57;10.93;;;8.10;;
2542;SDS011;1116;51.502;7.414;2023-05-10T01:15:33;9.37;;;7.33;;
2542;SDS011;1116;51.502;7.414;2023-05-10T01:18:04;8.33;;;7.10;;
2542;SDS011;1116;51.502;7.414;2023-05-10T01:20:38;7.93;;;7.17;;
2542;SDS011;1116;51.502;7.414;2023-05-10T01:23:28;9.30;;;8.20;;
2542;SDS011;1116;51.502;7.414;2023-05-10T01:29:25;8.73;;;7.77;;
2542;SDS011;1116;51.502;7.414;2023-05-10T01:32:43;9.90;;;8.80;;
2542;SDS011;1116;51.502;7.414;2023-05-10T01:35:22;10.63;;;8.70;;
2542;SDS011;1116;51.502;7.414;2023-05-10T01:37:58;12.43;;;8.90;;
2542;SDS011;1116;51.502;7.414;2023-05-10T01:40:45;13.97;;;10.10;;
2542;SDS011;1116;51.502;7.414;2023-05-10T01:43:22;11.20;;;9.77;;
2542;SDS011;1116;51.502;7.414;2023-05-10T01:45:59;10.77;;;9.17;;
2542;SDS011;1116;51.502;7.414;2023-05-10T01:48:42;12.23;;;9.80;;
2542;SDS011;1116;51.502;7.414;2023-05-10T01:51:19;12.10;;;9.00;;
2542;SDS011;1116;51.502;7.414;2023-05-10T01:53:58;11.70;;;8.70;;
2542;SDS011;1116;51.502;7.414;2023-05-10T01:56:32;9.23;;;8.33;;
2542;SDS011;1116;51.502;7.414;2023-05-10T01:59:06;9.20;;;7.97;;
2542;SDS011;1116;51.502;7.414;2023-05-10T02:01:41;6.70;;;6.00;;
2542;SDS011;1116;51.502;7.414;2023-05-10T02:04:17;6.17;;;5.27;;
2542;SDS011;1116;51.502;7.414;2023-05-10T02:06:49;6.10;;;5.37;;
2542;SDS011;1116;51.502;7.414;2023-05-10T02:09:21;5.93;;;4.80;;
2542;SDS011;1116;51.502;7.414;2023-05-10T02:11:54;7.80;;;5.53;;
2542;SDS011;1116;51.502;7.414;2023-05-10T02:14:27;5.57;;;4.57;;
2542;SDS011;1116;51.502;7.414;2023-05-10T02:16:59;6.50;;;4.97;;
2542;SDS011;1116;51.502;7.414;2023-05-10T02:19:34;5.87;;;4.70;;
2542;SDS011;1116;51.502;7.414;2023-05-10T02:22:09;5.40;;;4.50;;
2542;SDS011;1116;51.502;7.414;2023-05-10T02:24:40;6.27;;;4.80;;
2542;SDS011;1116;51.502;7.414;2023-05-10T02:27:12;4.10;;;3.70;;
2542;SDS011;1116;51.502;7.414;2023-05-10T02:29:45;3.93;;;3.53;;
2542;SDS011;1116;51.502;7.414;2023-05-10T02:32:18;4.83;;;3.37;;
2542;SDS011;1116;51.502;7.414;2023-05-10T02:34:52;3.00;;;2.70;;
2542;SDS011;1116;51.502;7.414;2023-05-10T02:37:23;2.63;;;2.43;;
2542;SDS011;1116;51.502;7.414;2023-05-10T02:39:55;4.13;;;2.73;;
2542;SDS011;1116;51.502;7.414;2023-05-10T02:42:31;2.90;;;2.37;;
2542;SDS011;1116;51.502;7.414;2023-05-10T02:45:07;3.73;;;2.63;;
2542;SDS011;1116;51.502;7.414;2023-05-10T02:47:42;2.67;;;2.47;;
2542;SDS011;1116;51.502;7.414;2023-05-10T02:50:16;2.30;;;2.07;;
2542;SDS011;1116;51.502;7.414;2023-05-10T02:52:47;4.03;;;2.40;;
2542;SDS011;1116;51.502;7.414;2023-05-10T02:55:22;2.77;;;2.50;;
2542;SDS011;1116;51.502;7.414;2023-05-10T02:58:00;2.43;;;2.20;;
2542;SDS011;1116;51.502;7.414;2023-05-10T03:00:31;4.40;;;2.67;;
2542;SDS011;1116;51.502;7.414;2023-05-10T03:03:03;7.80;;;3.17;;
2542;SDS011;1116;51.502;7.414;2023-05-10T03:05:37;4.03;;;3.03;;
2542;SDS011;1116;51.502;7.414;2023-05-10T03:08:08;3.17;;;2.80;;
2542;SDS011;1116;51.502;7.414;2023-05-10T03:10:41;3.10;;;2.70;;
2542;SDS011;1116;51.502;7.414;2023-05-10T03:13:23;3.00;;;2.50;;
2542;SDS011;1116;51.502;7.414;2023-05-10T03:16:05;3.13;;;2.87;;
2542;SDS011;1116;51.502;7.414;2023-05-10T03:18:41;3.33;;;2.80;;
2542;SDS011;1116;51.502;7.414;2023-05-10T03:21:17;5.13;;;2.90;;
2542;SDS011;1116;51.502;7.414;2023-05-10T03:23:51;4.33;;;3.27;;
2542;SDS011;1116;51.502;7.414;2023-05-10T03:26:28;5.43;;;3.67;;
2542;SDS011;1116;51.502;7.414;2023-05-10T03:29:00;5.00;;;4.50;;
2542;SDS011;1116;51.502;7.414;2023-05-10T03:31:32;5.53;;;5.03;;
2542;SDS011;1116;51.502;7.414;2023-05-10T03:34:03;6.33;;;5.70;;
2542;SDS011;1116;51.502;7.414;2023-05-10T03:36:37;9.40;;;5.93;;
2542;SDS011;1116;51.502;7.414;2023-05-10T03:39:08;8.07;;;6.87;;
2542;SDS011;1116;51.502;7.414;2023-05-10T03:41:39;11.33;;;8.03;;
2542;SDS011;1116;51.502;7.414;2023-05-10T03:44:10;13.20;;;9.57;;
2542;SDS011;1116;51.502;7.414;2023-05-10T03:46:41;13.20;;;10.00;;
2542;SDS011;1116;51.502;7.414;2023-05-10T03:49:12;13.33;;;11.30;;
2542;SDS011;1116;51.502;7.414;2023-05-10T03:51:46;13.93;;;11.67;;
2542;SDS011;1116;51.502;7.414;2023-05-10T03:54:17;13.87;;;11.10;;
2542;SDS011;1116;51.502;7.414;2023-05-10T03:56:48;14.20;;;11.60;;
2542;SDS011;1116;51.502;7.414;2023-05-10T03:59:19;17.30;;;12.70;;
2542;SDS011;1116;51.502;7.414;2023-05-10T04:01:50;17.87;;;12.67;;
2542;SDS011;1116;51.502;7.414;2023-05-10T04:04:21;18.17;;;12.90;;
2542;SDS011;1116;51.502;7.414;2023-05-10T04:06:54;21.00;;;13.50;;
2542;SDS011;1116;51.502;7.414;2023-05-10T04:09:25;17.20;;;13.17;;
2542;SDS011;1116;51.502;7.414;2023-05-10T04:11:56;18.30;;;13.03;;
2542;SDS011;1116;51.502;7.414;2023-05-10T04:14:29;17.60;;;12.10;;
2542;SDS011;1116;51.502;7.414;2023-05-10T04:17:01;16.77;;;12.70;;
2542;SDS011;1116;51.502;7.414;2023-05-10T04:19:32;19.23;;;13.07;;
2542;SDS011;1116;51.502;7.414;2023-05-10T04:22:06;16.93;;;12.30;;
2542;SDS011;1116;51.502;7.414;2023-05-10T04:24:37;15.40;;;11.37;;
2542;SDS011;1116;51.502;7.414;2023-05-10T04:27:08;17.90;;;12.30;;
2542;SDS011;1116;51.502;7.414;2023-05-10T04:29:39;17.70;;;12.07;;
2542;SDS011;1116;51.502;7.414;2023-05-10T04:32:10;15.67;;;10.93;;
2542;SDS011;1116;51.502;7.414;2023-05-10T04:34:41;14.33;;;10.73;;
2542;SDS011;1116;51.502;7.414;2023-05-10T04:37:15;15.33;;;10.60;;
2542;SDS011;1116;51.502;7.414;2023-05-10T04:39:46;16.50;;;11.13;;
2542;SDS011;1116;51.502;7.414;2023-05-10T04:42:17;14.33;;;10.87;;
2542;SDS011;1116;51.502;7.414;2023-05-10T04:44:48;17.30;;;13.30;;
2542;SDS011;1116;51.502;7.414;2023-05-10T04:47:19;18.60;;;13.00;;
2542;SDS011;1116;51.502;7.414;2023-05-10T04:49:50;19.23;;;13.33;;
2542;SDS011;1116;51.502;7.414;2023-05-10T04:52:24;22.03;;;15.80;;
2542;SDS011;1116;51.502;7.414;2023-05-10T04:54:55;22.73;;;16.47;;
2542;SDS011;1116;51.502;7.414;2023-05-10T04:57:26;26.17;;;16.87;;
2542;SDS011;1116;51.502;7.414;2023-05-10T04:59:57;26.93;;;17.93;;
2542;SDS011;1116;51.502;7.414;2023-05-10T05:02:29;27.03;;;19.73;;
2542;SDS011;1116;51.502;7.414;2023-05-10T05:05:01;29.43;;;19.87;;
2542;SDS011;1116;51.502;7.414;2023-05-10T05:07:34;33.87;;;19.00;;
2542;SDS011;1116;51.502;7.414;2023-05-10T05:10:06;33.60;;;20.60;;
2542;SDS011;1116;51.502;7.414;2023-05-10T05:12:38;30.87;;;19.57;;
2542;SDS011;1116;51.502;7.414;2023-05-10T05:15:10;30.40;;;20.20;;
2542;SDS011;1116;51.502;7.414;2023-05-10T05:17:42;31.90;;;21.00;;
2542;SDS011;1116;51.502;7.414;2023-05-10T05:20:13;31.67;;;21.53;;
2542;SDS011;1116;51.502;7.414;2023-05-10T05:22:49;29.63;;;20.40;;
2542;SDS011;1116;51.502;7.414;2023-05-10T05:25:20;38.00;;;22.30;;
2542;SDS011;1116;51.502;7.414;2023-05-10T05:27:51;33.57;;;22.13;;
2542;SDS011;1116;51.502;7.414;2023-05-10T05:30:22;37.20;;;22.00;;
2542;SDS011;1116;51.502;7.414;2023-05-10T05:32:53;33.83;;;21.10;;
2542;SDS011;1116;51.502;7.414;2023-05-10T05:35:24;33.00;;;21.60;;
2542;SDS011;1116;51.502;7.414;2023-05-10T05:37:58;36.77;;;22.97;;
2542;SDS011;1116;51.502;7.414;2023-05-10T05:40:29;33.80;;;22.40;;
2542;SDS011;1116;51.502;7.414;2023-05-10T05:43:00;34.50;;;22.10;;
2542;SDS011;1116;51.502;7.414;2023-05-10T05:45:30;31.20;;;22.10;;
2542;SDS011;1116;51.502;7.414;2023-05-10T05:48:02;33.70;;;22.37;;
2542;SDS011;1116;51.502;7.414;2023-05-10T05:50:33;39.93;;;22.80;;
2542;SDS011;1116;51.502;7.414;2023-05-10T05:53:07;36.27;;;24.10;;
2542;SDS011;1116;51.502;7.414;2023-05-10T05:55:39;36.60;;;22.97;;
2542;SDS011;1116;51.502;7.414;2023-05-10T05:58:10;32.93;;;22.97;;
2542;SDS011;1116;51.502;7.414;2023-05-10T06:00:41;38.03;;;24.90;;
2542;SDS011;1116;51.502;7.414;2023-05-10T06:03:12;36.07;;;24.23;;
2542;SDS011;1116;51.502;7.414;2023-05-10T06:05:43;35.90;;;24.13;;
2542;SDS011;1116;51.502;7.414;2023-05-10T06:08:17;34.90;;;23.47;;
2542;SDS011;1116;51.502;7.414;2023-05-10T06:10:48;38.57;;;24.73;;
2542;SDS011;1116;51.502;7.414;2023-05-10T06:13:20;42.80;;;25.90;;
2542;SDS011;1116;51.502;7.414;2023-05-10T06:15:51;45.53;;;26.27;;
2542;SDS011;1116;51.502;7.414;2023-05-10T06:18:23;39.70;;;26.47;;
2542;SDS011;1116;51.502;7.414;2023-05-10T06:20:54;39.70;;;25.50;;
2542;SDS011;1116;51.502;7.414;2023-05-10T06:23:27;39.50;;;25.53;;
2542;SDS011;1116;51.502;7.414;2023-05-10T06:25:58;37.40;;;25.67;;
2542;SDS011;1116;51.502;7.414;2023-05-10T06:28:29;41.13;;;27.27;;
2542;SDS011;1116;51.502;7.414;2023-05-10T06:31:01;40.20;;;25.90;;
2542;SDS011;1116;51.502;7.414;2023-05-10T06:33:32;34.83;;;25.97;;
2542;SDS011;1116;51.502;7.414;2023-05-10T06:36:03;38.87;;;26.90;;
2542;SDS011;1116;51.502;7.414;2023-05-10T06:38:37;37.90;;;25.40;;
2542;SDS011;1116;51.502;7.414;2023-05-10T06:41:08;42.33;;;27.20;;
2542;SDS011;1116;51.502;7.414;2023-05-10T06:43:39;40.83;;;26.83;;
2542;SDS011;1116;51.502;7.414;2023-05-10T06:46:11;37.90;;;24.87;;
2542;SDS011;1116;51.502;7.414;2023-05-10T06:48:42;37.13;;;26.47;;
2542;SDS011;1116;51.502;7.414;2023-05-10T06:51:13;41.03;;;26.27;;
2542;SDS011;1116;51.502;7.414;2023-05-10T06:53:49;39.63;;;26.40;;
2542;SDS011;1116;51.502;7.414;2023-05-10T06:56:20;39.23;;;26.03;;
2542;SDS011;1116;51.502;7.414;2023-05-10T06:58:54;35.37;;;26.07;;
2542;SDS011;1116;51.502;7.414;2023-05-10T07:01:25;37.20;;;25.87;;
2542;SDS011;1116;51.502;7.414;2023-05-10T07:03:58;36.43;;;25.10;;
2542;SDS011;1116;51.502;7.414;2023-05-10T07:06:40;35.07;;;24.80;;
2542;SDS011;1116;51.502;7.414;2023-05-10T07:09:18;34.37;;;25.27;;
2542;SDS011;1116;51.502;7.414;2023-05-10T07:11:54;33.53;;;24.30;;
2542;SDS011;1116;51.502;7.414;2023-05-10T07:14:29;28.63;;;22.73;;
2542;SDS011;1116;51.502;7.414;2023-05-10T07:17:10;26.60;;;23.10;;
2542;SDS011;1116;51.502;7.414;2023-05-10T07:19:50;28.57;;;23.40;;
2542;SDS011;1116;51.502;7.414;2023-05-10T07:22:21;25.97;;;21.77;;
2542;SDS011;1116;51.502;7.414;2023-05-10T07:24:57;23.93;;;21.33;;
2542;SDS011;1116;51.502;7.414;2023-05-10T07:27:46;26.27;;;23.10;;
2542;SDS011;1116;51.502;7.414;2023-05-10T07:30:20;28.63;;;23.80;;
2542;SDS011;1116;51.502;7.414;2023-05-10T07:36:29;24.90;;;21.03;;
2542;SDS011;1116;51.502;7.414;2023-05-10T07:40:30;28.83;;;22.30;;
2542;SDS011;1116;51.502;7.414;2023-05-10T07:43:03;24.57;;;21.80;;
2542;SDS011;1116;51.502;7.414;2023-05-10T07:48:21;25.20;;;21.10;;
2542;SDS011;1116;51.502;7.414;2023-05-10T07:51:28;26.10;;;21.20;;
2542;SDS011;1116;51.502;7.414;2023-05-10T07:55:09;27.87;;;23.17;;
2542;SDS011;1116;51.502;7.414;2023-05-10T07:58:07;25.10;;;21.97;;
2542;SDS011;1116;51.502;7.414;2023-05-10T08:00:54;23.00;;;20.43;;
2542;SDS011;1116;51.502;7.414;2023-05-10T08:03:25;26.80;;;21.20;;
2542;SDS011;1116;51.502;7.414;2023-05-10T08:05:59;27.87;;;20.77;;
2542;SDS011;1116;51.502;7.414;2023-05-10T08:08:34;27.17;;;21.10;;
2542;SDS011;1116;51.502;7.414;2023-05-10T08:11:08;24.67;;;21.50;;
2542;SDS011;1116;51.502;7.414;2023-05-10T08:13:53;29.23;;;21.40;;
2542;SDS011;1116;51.502;7.414;2023-05-10T08:16:25;30.00;;;21.70;;
2542;SDS011;1116;51.502;7.414;2023-05-10T08:19:24;28.70;;;22.00;;
2542;SDS011;1116;51.502;7.414;2023-05-10T08:22:46;32.47;;;23.90;;
2542;SDS011;1116;51.502;7.414;2023-05-10T08:25:24;35.03;;;23.13;;
2542;SDS011;1116;51.502;7.414;2023-05-10T08:28:08;30.80;;;23.43;;
2542;SDS011;1116;51.502;7.414;2023-05-10T08:30:42;29.03;;;23.37;;
2542;SDS011;1116;51.502;7.414;2023-05-10T08:33:13;30.27;;;23.60;;
2542;SDS011;1116;51.502;7.414;2023-05-10T08:35:45;28.30;;;23.03;;
2542;SDS011;1116;51.502;7.414;2023-05-10T08:38:29;27.60;;;22.90;;
2542;SDS011;1116;51.502;7.414;2023-05-10T08:41:18;26.83;;;22.67;;
2542;SDS011;1116;51.502;7.414;2023-05-10T08:45:15;30.40;;;24.30;;
2542;SDS011;1116;51.502;7.414;2023-05-10T08:48:22;32.30;;;26.07;;
2542;SDS011;1116;51.502;7.414;2023-05-10T08:50:57;30.10;;;22.03;;
2542;SDS011;1116;51.502;7.414;2023-05-10T08:53:30;29.10;;;22.27;;
2542;SDS011;1116;51.502;7.414;2023-05-10T08:56:03;26.80;;;20.70;;
2542;SDS011;1116;51.502;7.414;2023-05-10T08:58:35;29.93;;;19.90;;
2542;SDS011;1116;51.502;7.414;2023-05-10T09:01:06;29.97;;;21.17;;
2542;SDS011;1116;51.502;7.414;2023-05-10T09:03:41;26.60;;;19.40;;
2542;SDS011;1116;51.502;7.414;2023-05-10T09:06:13;28.07;;;19.30;;
2542;SDS011;1116;51.502;7.414;2023-05-10T09:08:44;29.37;;;21.30;;
2542;SDS011;1116;51.502;7.414;2023-05-10T09:11:15;29.47;;;21.33;;
2542;SDS011;1116;51.502;7.414;2023-05-10T09:13:47;34.30;;;22.87;;
2542;SDS011;1116;51.502;7.414;2023-05-10T09:16:20;32.80;;;21.17;;
2542;SDS011;1116;51.502;7.414;2023-05-10T09:18:57;28.87;;;21.67;;
2542;SDS011;1116;51.502;7.414;2023-05-10T09:21:28;28.43;;;20.97;;
2542;SDS011;1116;51.502;7.414;2023-05-10T09:24:02;27.20;;;20.27;;
2542;SDS011;1116;51.502;7.414;2023-05-10T09:26:34;30.77;;;20.00;;
2542;SDS011;1116;51.502;7.414;2023-05-10T09:29:15;24.40;;;18.13;;
2542;SDS011;1116;51.502;7.414;2023-05-10T09:31:47;32.73;;;19.83;;
2542;SDS011;1116;51.502;7.414;2023-05-10T09:34:29;23.77;;;17.57;;
2542;SDS011;1116;51.502;7.414;2023-05-10T09:37:03;20.73;;;15.70;;
2542;SDS011;1116;51.502;7.414;2023-05-10T09:39:37;21.60;;;16.03;;
2542;SDS011;1116;51.502;7.414;2023-05-10T09:42:09;21.30;;;15.57;;
2542;SDS011;1116;51.502;7.414;2023-05-10T09:44:40;18.10;;;14.83;;
2542;SDS011;1116;51.502;7.414;2023-05-10T09:47:16;21.30;;;14.20;;
2542;SDS011;1116;51.502;7.414;2023-05-10T09:49:53;22.40;;;14.60;;
2542;SDS011;1116;51.502;7.414;2023-05-10T09:52:30;15.37;;;12.80;;
2542;SDS011;1116;51.502;7.414;2023-05-10T09:55:01;15.20;;;12.00;;
2542;SDS011;1116;51.502;7.414;2023-05-10T09:57:32;14.50;;;11.43;;
2542;SDS011;1116;51.502;7.414;2023-05-10T10:00:03;15.10;;;11.60;;
2542;SDS011;1116;51.502;7.414;2023-05-10T10:02:40;12.63;;;9.83;;
2542;SDS011;1116;51.502;7.414;2023-05-10T10:05:13;12.60;;;10.87;;
2542;SDS011;1116;51.502;7.414;2023-05-10T10:07:45;14.80;;;10.43;;
2542;SDS011;1116;51.502;7.414;2023-05-10T10:10:20;12.17;;;9.67;;
2542;SDS011;1116;51.502;7.414;2023-05-10T10:12:55;12.27;;;8.93;;
2542;SDS011;1116;51.502;7.414;2023-05-10T10:15:26;13.80;;;8.97;;
2542;SDS011;1116;51.502;7.414;2023-05-10T10:17:56;11.70;;;10.00;;
2542;SDS011;1116;51.502;7.414;2023-05-10T10:20:30;10.37;;;9.27;;
2542;SDS011;1116;51.502;7.414;2023-05-10T10:23:01;11.80;;;9.37;;
2542;SDS011;1116;51.502;7.414;2023-05-10T10:25:32;11.20;;;8.50;;
2542;SDS011;1116;51.502;7.414;2023-05-10T10:28:07;10.00;;;9.00;;
2542;SDS011;1116;51.502;7.414;2023-05-10T10:30:45;11.27;;;8.80;;
2542;SDS011;1116;51.502;7.414;2023-05-10T10:36:19;12.77;;;10.40;;
2542;SDS011;1116;51.502;7.414;2023-05-10T10:38:57;11.43;;;9.50;;
2542;SDS011;1116;51.502;7.414;2023-05-10T10:41:32;13.37;;;9.73;;
2542;SDS011;1116;51.502;7.414;2023-05-10T10:47:00;13.43;;;9.70;;
2542;SDS011;1116;51.502;7.414;2023-05-10T10:49:43;13.87;;;10.20;;
2542;SDS011;1116;51.502;7.414;2023-05-10T10:52:25;14.50;;;11.10;;
2542;SDS011;1116;51.502;7.414;2023-05-10T10:55:03;14.70;;;12.03;;
2542;SDS011;1116;51.502;7.414;2023-05-10T10:57:43;17.07;;;13.30;;
2542;SDS011;1116;51.502;7.414;2023-05-10T11:00:22;20.10;;;13.60;;
2542;SDS011;1116;51.502;7.414;2023-05-10T11:02:58;21.23;;;14.90;;
2542;SDS011;1116;51.502;7.414;2023-05-10T11:08:15;19.57;;;16.00;;
2542;SDS011;1116;51.502;7.414;2023-05-10T11:10:51;17.60;;;14.63;;
2542;SDS011;1116;51.502;7.414;2023-05-10T11:13:27;19.40;;;13.60;;
2542;SDS011;1116;51.502;7.414;2023-05-10T11:16:11;15.37;;;12.57;;
2542;SDS011;1116;51.502;7.414;2023-05-10T11:18:57;17.10;;;11.20;;
2542;SDS011;1116;51.502;7.414;2023-05-10T11:21:30;14.90;;;11.30;;
2542;SDS011;1116;51.502;7.414;2023-05-10T11:24:09;13.50;;;10.60;;
2542;SDS011;1116;51.502;7.414;2023-05-10T11:26:44;13.50;;;10.90;;
2542;SDS011;1116;51.502;7.414;2023-05-10T11:29:15;14.57;;;11.80;;
2542;SDS011;1116;51.502;7.414;2023-05-10T11:31:46;15.50;;;12.50;;
2542;SDS011;1116;51.502;7.414;2023-05-10T11:34:24;15.73;;;13.80;;
2542;SDS011;1116;51.502;7.414;2023-05-10T11:36:57;18.57;;;16.57;;
2542;SDS011;1116;51.502;7.414;2023-05-10T11:39:32;17.63;;;15.73;;
2542;SDS011;1116;51.502;7.414;2023-05-10T11:42:03;17.47;;;15.70;;
2542;SDS011;1116;51.502;7.414;2023-05-10T11:44:39;17.33;;;15.17;;
2542;SDS011;1116;51.502;7.414;2023-05-10T11:47:13;18.43;;;16.30;;
2542;SDS011;1116;51.502;7.414;2023-05-10T11:49:44;17.13;;;15.33;;
2542;SDS011;1116;51.502;7.414;2023-05-10T11:52:15;18.50;;;15.80;;
2542;SDS011;1116;51.502;7.414;2023-05-10T11:54:49;15.20;;;13.10;;
2542;SDS011;1116;51.502;7.414;2023-05-10T11:57:25;14.57;;;13.10;;
2542;SDS011;1116;51.502;7.414;2023-05-10T11:59:58;16.30;;;13.13;;
2542;SDS011;1116;51.502;7.414;2023-05-10T12:02:31;18.60;;;12.50;;
2542;SDS011;1116;51.502;7.414;2023-05-10T12:05:02;14.13;;;12.57;;
2542;SDS011;1116;51.502;7.414;2023-05-10T12:07:35;14.30;;;12.20;;
2542;SDS011;1116;51.502;7.414;2023-05-10T12:10:09;21.00;;;13.23;;
2542;SDS011;1116;51.502;7.414;2023-05-10T12:12:43;14.60;;;11.97;;
2542;SDS011;1116;51.502;7.414;2023-05-10T12:15:17;15.03;;;12.10;;
2542;SDS011;1116;51.502;7.414;2023-05-10T12:17:49;19.30;;;12.90;;
2542;SDS011;1116;51.502;7.414;2023-05-10T12:20:21;13.10;;;11.27;;
2542;SDS011;1116;51.502;7.414;2023-05-10T12:22:54;12.10;;;10.80;;
2542;SDS011;1116;51.502;7.414;2023-05-10T12:25:32;13.80;;;11.60;;
2542;SDS011;1116;51.502;7.414;2023-05-10T12:28:05;14.40;;;10.33;;
2542;SDS011;1116;51.502;7.414;2023-05-10T12:30:37;13.20;;;10.03;;
2542;SDS011;1116;51.502;7.414;2023-05-10T12:33:09;11.97;;;9.80;;
2542;SDS011;1116;51.502;7.414;2023-05-10T12:35:46;10.33;;;8.70;;
2542;SDS011;1116;51.502;7.414;2023-05-10T12:38:28;12.23;;;10.30;;
2542;SDS011;1116;51.502;7.414;2023-05-10T12:41:05;13.43;;;10.40;;
2542;SDS011;1116;51.502;7.414;2023-05-10T12:43:37;11.03;;;9.83;;
2542;SDS011;1116;51.502;7.414;2023-05-10T12:46:13;12.73;;;9.97;;
2542;SDS011;1116;51.502;7.414;2023-05-10T12:48:45;11.57;;;9.53;;
2542;SDS011;1116;51.502;7.414;2023-05-10T12:51:35;10.63;;;8.80;;
2542;SDS011;1116;51.502;7.414;2023-05-10T12:54:05;12.70;;;10.47;;
2542;SDS011;1116;51.502;7.414;2023-05-10T12:56:39;9.93;;;8.80;;
2542;SDS011;1116;51.502;7.414;2023-05-10T12:59:10;13.10;;;9.90;;
2542;SDS011;1116;51.502;7.414;2023-05-10T13:01:41;10.83;;;9.70;;
2542;SDS011;1116;51.502;7.414;2023-05-10T13:04:12;13.80;;;10.90;;
2542;SDS011;1116;51.502;7.414;2023-05-10T13:06:43;12.13;;;9.97;;
2542;SDS011;1116;51.502;7.414;2023-05-10T13:09:14;11.93;;;10.63;;
2542;SDS011;1116;51.502;7.414;2023-05-10T13:11:49;11.90;;;10.70;;
2542;SDS011;1116;51.502;7.414;2023-05-10T13:14:21;14.53;;;11.40;;
2542;SDS011;1116;51.502;7.414;2023-05-10T13:16:51;13.03;;;11.17;;
2542;SDS011;1116;51.502;7.414;2023-05-10T13:19:26;11.60;;;10.33;;
2542;SDS011;1116;51.502;7.414;2023-05-10T13:21:57;12.00;;;10.63;;
2542;SDS011;1116;51.502;7.414;2023-05-10T13:24:28;11.97;;;10.17;;
2542;SDS011;1116;51.502;7.414;2023-05-10T13:27:03;13.83;;;10.20;;
2542;SDS011;1116;51.502;7.414;2023-05-10T13:29:34;12.87;;;10.93;;
2542;SDS011;1116;51.502;7.414;2023-05-10T13:32:05;13.27;;;10.50;;
2542;SDS011;1116;51.502;7.414;2023-05-10T13:34:36;14.00;;;11.17;;
2542;SDS011;1116;51.502;7.414;2023-05-10T13:37:07;13.50;;;10.43;;
2542;SDS011;1116;51.502;7.414;2023-05-10T13:39:38;12.90;;;11.13;;
2542;SDS011;1116;51.502;7.414;2023-05-10T13:42:19;12.30;;;10.40;;
2542;SDS011;1116;51.502;7.414;2023-05-10T13:45:02;10.83;;;9.70;;
2542;SDS011;1116;51.502;7.414;2023-05-10T13:47:34;10.97;;;9.50;;
2542;SDS011;1116;51.502;7.414;2023-05-10T13:50:06;10.27;;;9.20;;
2542;SDS011;1116;51.502;7.414;2023-05-10T13:52:40;11.60;;;10.07;;
2542;SDS011;1116;51.502;7.414;2023-05-10T13:55:11;12.63;;;11.33;;
2542;SDS011;1116;51.502;7.414;2023-05-10T13:57:45;12.33;;;10.70;;
2542;SDS011;1116;51.502;7.414;2023-05-10T14:00:16;11.67;;;10.57;;
2542;SDS011;1116;51.502;7.414;2023-05-10T14:02:48;10.00;;;9.10;;
2542;SDS011;1116;51.502;7.414;2023-05-10T14:05:19;7.43;;;6.60;;
2542;SDS011;1116;51.502;7.414;2023-05-10T14:07:53;7.80;;;7.00;;
2542;SDS011;1116;51.502;7.414;2023-05-10T14:10:24;8.50;;;7.40;;
2542;SDS011;1116;51.502;7.414;2023-05-10T14:12:59;6.73;;;6.07;;
2542;SDS011;1116;51.502;7.414;2023-05-10T14:15:31;5.80;;;5.30;;
2542;SDS011;1116;51.502;7.414;2023-05-10T14:18:02;6.23;;;4.87;;
2542;SDS011;1116;51.502;7.414;2023-05-10T14:20:33;4.63;;;4.23;;
2542;SDS011;1116;51.502;7.414;2023-05-10T14:23:04;5.17;;;4.77;;
2542;SDS011;1116;51.502;7.414;2023-05-10T14:25:38;5.97;;;5.37;;
2542;SDS011;1116;51.502;7.414;2023-05-10T14:28:12;6.43;;;5.43;;
2542;SDS011;1116;51.502;7.414;2023-05-10T14:30:45;6.43;;;5.63;;
2542;SDS011;1116;51.502;7.414;2023-05-10T14:33:17;5.30;;;4.80;;
2542;SDS011;1116;51.502;7.414;2023-05-10T14:35:48;6.70;;;5.97;;
2542;SDS011;1116;51.502;7.414;2023-05-10T14:38:19;5.90;;;5.33;;
2542;SDS011;1116;51.502;7.414;2023-05-10T14:40:50;4.70;;;4.20;;
2542;SDS011;1116;51.502;7.414;2023-05-10T14:43:24;6.10;;;5.57;;
2542;SDS011;1116;51.502;7.414;2023-05-10T14:45:55;5.23;;;4.63;;
2542;SDS011;1116;51.502;7.414;2023-05-10T14:48:26;5.80;;;4.80;;
2542;SDS011;1116;51.502;7.414;2023-05-10T14:50:57;5.30;;;4.60;;
2542;SDS011;1116;51.502;7.414;2023-05-10T14:53:28;4.43;;;3.80;;
2542;SDS011;1116;51.502;7.414;2023-05-10T14:56:00;3.70;;;3.40;;
2542;SDS011;1116;51.502;7.414;2023-05-10T14:58:34;4.43;;;3.67;;
2542;SDS011;1116;51.502;7.414;2023-05-10T15:01:05;3.80;;;3.50;;
2542;SDS011;1116;51.502;7.414;2023-05-10T15:03:36;5.07;;;4.00;;
2542;SDS011;1116;51.502;7.414;2023-05-10T15:06:07;3.80;;;3.50;;
2542;SDS011;1116;51.502;7.414;2023-05-10T15:08:38;3.77;;;3.47;;
2542;SDS011;1116;51.502;7.414;2023-05-10T15:11:10;4.23;;;3.83;;
2542;SDS011;1116;51.502;7.414;2023-05-10T15:13:44;5.43;;;3.87;;
2542;SDS011;1116;51.502;7.414;2023-05-10T15:16:14;3.70;;;3.40;;
2542;SDS011;1116;51.502;7.414;2023-05-10T15:18:45;4.10;;;3.70;;
2542;SDS011;1116;51.502;7.414;2023-05-10T15:21:16;4.50;;;3.83;;
2542;SDS011;1116;51.502;7.414;2023-05-10T15:23:47;4.27;;;3.87;;
2542;SDS011;1116;51.502;7.414;2023-05-10T15:26:18;5.80;;;3.97;;
2542;SDS011;1116;51.502;7.414;2023-05-10T15:28:52;4.60;;;4.20;;
2542;SDS011;1116;51.502;7.414;2023-05-10T15:31:23;6.47;;;5.00;;
2542;SDS011;1116;51.502;7.414;2023-05-10T15:33:57;5.93;;;3.97;;
2542;SDS011;1116;51.502;7.414;2023-05-10T15:36:29;4.23;;;3.93;;
2542;SDS011;1116;51.502;7.414;2023-05-10T15:39:01;4.40;;;4.00;;
2542;SDS011;1116;51.502;7.414;2023-05-10T15:41:33;4.93;;;4.10;;
2542;SDS011;1116;51.502;7.414;2023-05-10T15:44:06;7.50;;;5.07;;
2542;SDS011;1116;51.502;7.414;2023-05-10T15:46:38;4.90;;;4.20;;
2542;SDS011;1116;51.502;7.414;2023-05-10T15:49:09;5.00;;;4.27;;
2542;SDS011;1116;51.502;7.414;2023-05-10T15:51:40;5.53;;;4.63;;
2542;SDS011;1116;51.502;7.414;2023-05-10T15:54:11;5.80;;;4.60;;
2542;SDS011;1116;51.502;7.414;2023-05-10T15:56:45;5.27;;;4.77;;
2542;SDS011;1116;51.502;7.414;2023-05-10T15:59:18;5.20;;;4.60;;
2542;SDS011;1116;51.502;7.414;2023-05-10T16:01:49;6.30;;;4.53;;